Time;durP1;ratioP1;P1;durP2;ratioP2;P2;SDS_P1;SDS_P2;PMS_P1;PMS_P2;Temp;Humidity;BMP_temperature;BMP_pressure;BME280_temperature;BME280_humidity;BME280_pressure;Samples;Min_cycle;Max_cycle;Signal;HPM_P1;HPM_P2
2023/07/31 00:00:28;;;;;;;1.65;1.40;;;20.40;82.40;;;;;;4996216;28;20026;-69
2023/07/31 00:02:54;;;;;;;2.03;1.50;;;20.40;82.40;;;;;;4996279;28;20361;-68
2023/07/31 00:05:21;;;;;;;1.90;1.45;;;20.40;82.40;;;;;;4996422;28;20027;-68
2023/07/31 00:07:46;;;;;;;2.03;1.20;;;20.40;81.70;;;;;;4996371;28;20053;-68
2023/07/31 00:10:12;;;;;;;1.88;1.40;;;20.40;82.00;;;;;;4996317;28;20039;-68
2023/07/31 00:12:43;;;;;;;1.98;1.42;;;20.40;82.00;;;;;;4995898;28;20031;-68
2023/07/31 00:15:09;;;;;;;3.45;1.50;;;20.30;82.00;;;;;;4978761;28;20038;-68
2023/07/31 00:17:35;;;;;;;3.40;1.50;;;20.30;82.10;;;;;;4995973;28;20065;-68
2023/07/31 00:20:00;;;;;;;4.18;1.48;;;20.30;82.00;;;;;;4996211;28;20072;-68
2023/07/31 00:22:26;;;;;;;2.92;1.40;;;20.30;82.30;;;;;;4995915;28;20502;-72
2023/07/31 00:24:52;;;;;;;2.22;1.38;;;20.30;82.50;;;;;;4996503;28;20502;-68
2023/07/31 00:27:17;;;;;;;3.70;1.40;;;20.30;82.40;;;;;;4996295;28;20031;-68
2023/07/31 00:29:43;;;;;;;3.08;1.73;;;20.30;82.20;;;;;;4995700;28;20035;-68
2023/07/31 00:32:09;;;;;;;2.33;1.77;;;20.30;82.30;;;;;;4996179;28;20037;-68
2023/07/31 00:34:34;;;;;;;2.63;1.58;;;20.20;81.90;;;;;;4994465;28;20069;-68
2023/07/31 00:37:00;;;;;;;3.80;1.45;;;20.20;82.20;;;;;;4996123;28;20459;-68
2023/07/31 00:39:25;;;;;;;1.30;1.15;;;20.20;82.30;;;;;;4995901;28;20034;-68
2023/07/31 00:41:51;;;;;;;4.30;1.55;;;20.20;82.30;;;;;;4995226;28;20113;-68
2023/07/31 00:44:17;;;;;;;3.50;1.40;;;20.10;82.30;;;;;;4995895;28;20105;-68
2023/07/31 00:46:42;;;;;;;8.63;1.33;;;20.20;82.20;;;;;;4995476;28;20026;-68
2023/07/31 00:49:09;;;;;;;1.83;1.40;;;20.10;82.10;;;;;;4995948;28;20165;-68
2023/07/31 00:51:34;;;;;;;5.03;1.60;;;20.10;81.90;;;;;;4995409;28;20511;-68
2023/07/31 00:54:00;;;;;;;2.30;1.40;;;20.10;82.20;;;;;;4995939;28;20105;-68
2023/07/31 00:56:27;;;;;;;2.00;1.33;;;20.00;82.20;;;;;;4995631;28;20028;-68
2023/07/31 00:58:53;;;;;;;2.15;1.42;;;20.00;82.50;;;;;;4995256;28;20041;-68
2023/07/31 01:01:18;;;;;;;3.58;1.50;;;20.00;83.10;;;;;;4995685;28;20426;-69
2023/07/31 01:03:44;;;;;;;1.85;1.42;;;19.90;83.00;;;;;;4995139;28;20023;-69
2023/07/31 01:06:47;;;;;;;3.90;1.52;;;19.90;83.70;;;;;;4995347;28;20046;-68
2023/07/31 01:09:21;;;;;;;2.08;1.65;;;19.90;83.70;;;;;;4995299;28;20033;-68
2023/07/31 01:11:53;;;;;;;1.85;1.52;;;19.80;83.70;;;;;;4994647;28;20030;-68
2023/07/31 01:14:19;;;;;;;2.40;1.60;;;19.80;83.70;;;;;;4995353;28;20038;-68
2023/07/31 01:16:44;;;;;;;2.35;1.27;;;19.80;84.00;;;;;;4995185;28;20026;-69
2023/07/31 01:19:14;;;;;;;2.67;1.52;;;19.80;84.30;;;;;;4995266;28;20033;-68
2023/07/31 01:22:21;;;;;;;3.00;1.48;;;19.80;84.00;;;;;;4994826;28;20482;-68
2023/07/31 01:25:16;;;;;;;3.65;1.33;;;19.70;84.20;;;;;;4994524;28;20368;-68
2023/07/31 01:28:13;;;;;;;4.10;1.52;;;19.70;84.40;;;;;;4996992;28;20019;-68
2023/07/31 01:30:44;;;;;;;3.33;1.80;;;19.70;84.40;;;;;;5012436;28;20113;-68
2023/07/31 01:33:10;;;;;;;;;;;19.60;84.40;;;;;;5014991;28;20075;-68
2023/07/31 01:35:37;;;;;;;2.67;1.83;;;19.60;84.80;;;;;;5014355;28;19984;-69
2023/07/31 01:38:03;;;;;;;3.83;1.35;;;19.60;84.80;;;;;;5014593;28;20054;-68
2023/07/31 01:40:28;;;;;;;5.20;1.60;;;19.60;84.90;;;;;;5014396;28;20061;-68
2023/07/31 01:42:54;;;;;;;2.28;1.48;;;19.60;85.00;;;;;;5013904;28;20025;-67
2023/07/31 01:45:19;;;;;;;5.43;1.77;;;19.60;85.30;;;;;;5014299;28;20034;-67
2023/07/31 01:47:45;;;;;;;5.15;1.52;;;19.60;85.40;;;;;;5013855;28;20045;-68
2023/07/31 01:50:11;;;;;;;3.33;1.60;;;19.60;85.30;;;;;;5014454;28;20038;-68
2023/07/31 01:52:36;;;;;;;3.80;1.58;;;19.60;85.50;;;;;;5000882;28;20038;-69
2023/07/31 01:55:02;;;;;;;2.95;1.42;;;19.60;85.80;;;;;;4994504;28;20026;-68
2023/07/31 01:57:28;;;;;;;2.33;1.40;;;19.60;85.70;;;;;;4994665;28;20494;-68
2023/07/31 01:59:53;;;;;;;2.33;1.40;;;19.60;85.90;;;;;;4993229;28;20031;-68
2023/07/31 02:02:25;;;;;;;2.72;1.58;;;19.60;85.90;;;;;;4994104;28;20027;-68
2023/07/31 02:04:51;;;;;;;3.55;1.45;;;19.60;85.90;;;;;;4993987;28;20105;-68
2023/07/31 02:07:16;;;;;;;2.85;1.50;;;19.60;85.90;;;;;;4993836;28;20133;-68
2023/07/31 02:09:42;;;;;;;1.77;1.50;;;19.50;85.90;;;;;;4993542;28;20057;-68
2023/07/31 02:12:08;;;;;;;2.50;1.88;;;19.50;85.90;;;;;;4994241;28;20062;-69
2023/07/31 02:14:34;;;;;;;2.53;1.55;;;19.50;86.20;;;;;;4994109;28;20084;-68
2023/07/31 02:17:00;;;;;;;2.67;1.38;;;19.50;86.30;;;;;;4993793;28;20023;-68
2023/07/31 02:19:26;;;;;;;2.05;1.40;;;19.50;86.40;;;;;;4993880;28;20106;-68
2023/07/31 02:21:51;;;;;;;4.05;1.60;;;19.50;86.80;;;;;;4993375;28;20093;-68
2023/07/31 02:24:17;;;;;;;2.40;1.58;;;19.40;87.10;;;;;;4993699;28;20032;-68
2023/07/31 02:26:42;;;;;;;2.35;1.40;;;19.40;87.40;;;;;;4993567;28;20026;-69
2023/07/31 02:29:09;;;;;;;2.42;1.48;;;19.40;87.80;;;;;;4993655;28;20022;-68
2023/07/31 02:31:34;;;;;;;2.53;1.60;;;19.30;88.00;;;;;;4993761;28;20038;-69
2023/07/31 02:34:00;;;;;;;6.65;1.60;;;19.30;88.40;;;;;;4993434;28;20037;-68
2023/07/31 02:36:25;;;;;;;4.80;1.77;;;19.30;88.60;;;;;;4993800;28;20490;-68
2023/07/31 02:38:51;;;;;;;1.65;1.30;;;19.20;89.10;;;;;;4993372;28;20152;-68
2023/07/31 02:41:17;;;;;;;3.55;1.67;;;19.20;89.10;;;;;;4993915;28;20141;-68
2023/07/31 02:43:42;;;;;;;4.63;1.55;;;19.20;89.20;;;;;;4993142;28;20041;-69
2023/07/31 02:46:08;;;;;;;2.75;1.58;;;19.20;89.50;;;;;;4993590;28;20042;-68
2023/07/31 02:48:34;;;;;;;3.67;1.70;;;19.10;89.40;;;;;;4993376;28;20026;-68
2023/07/31 02:50:59;;;;;;;2.20;1.60;;;19.20;89.60;;;;;;4993248;28;20034;-68
2023/07/31 02:53:25;;;;;;;4.03;1.70;;;19.10;89.60;;;;;;4993439;28;20117;-69
2023/07/31 02:55:50;;;;;;;4.95;1.40;;;19.20;89.70;;;;;;4993452;28;20368;-69
2023/07/31 02:58:16;;;;;;;2.88;1.50;;;19.20;89.90;;;;;;4992907;28;20034;-68
2023/07/31 03:00:43;;;;;;;3.25;1.52;;;19.20;89.90;;;;;;4993072;28;20026;-68
2023/07/31 03:03:08;;;;;;;2.22;1.40;;;19.20;89.80;;;;;;4993791;28;20056;-68
2023/07/31 03:05:34;;;;;;;2.33;1.55;;;19.20;89.90;;;;;;4993559;28;20030;-68
2023/07/31 03:08:00;;;;;;;2.15;1.70;;;19.20;89.90;;;;;;4992786;28;20093;-68
2023/07/31 03:10:25;;;;;;;4.00;1.50;;;19.20;90.00;;;;;;4993446;28;20056;-68
2023/07/31 03:12:51;;;;;;;5.65;1.70;;;19.20;90.20;;;;;;4975502;28;20030;-69
2023/07/31 03:15:16;;;;;;;2.83;1.45;;;19.10;90.10;;;;;;4993272;28;20455;-68
2023/07/31 03:17:42;;;;;;;2.97;1.83;;;19.10;90.20;;;;;;4992949;28;20031;-69
2023/07/31 03:20:08;;;;;;;2.60;1.60;;;19.10;90.30;;;;;;4993072;28;20106;-69
2023/07/31 03:22:35;;;;;;;3.03;1.40;;;19.10;90.40;;;;;;4993254;28;20030;-69
2023/07/31 03:25:03;;;;;;;2.83;1.60;;;19.10;90.50;;;;;;4992904;28;20057;-68
2023/07/31 03:27:29;;;;;;;1.40;1.30;;;19.10;90.50;;;;;;4995730;28;20030;-68
2023/07/31 03:29:55;;;;;;;2.95;1.42;;;19.10;90.60;;;;;;4975421;28;20045;-69
2023/07/31 03:32:20;;;;;;;3.78;1.90;;;19.10;90.60;;;;;;4993074;28;20034;-69
2023/07/31 03:34:46;;;;;;;5.97;1.90;;;19.10;90.80;;;;;;4992847;28;20058;-69
2023/07/31 03:37:11;;;;;;;3.20;1.65;;;19.10;90.90;;;;;;4992861;28;20081;-68
2023/07/31 03:39:37;;;;;;;2.80;1.58;;;19.10;91.10;;;;;;5000915;28;20117;-68
2023/07/31 03:42:03;;;;;;;3.75;1.98;;;19.10;91.10;;;;;;5012380;28;20131;-69
2023/07/31 03:44:28;;;;;;;3.45;1.80;;;19.10;91.20;;;;;;5012826;28;20033;-68
2023/07/31 03:46:54;;;;;;;2.40;1.60;;;19.10;91.30;;;;;;5012261;28;20443;-68
2023/07/31 03:49:20;;;;;;;1.98;1.77;;;19.10;91.50;;;;;;5012497;28;20122;-69
2023/07/31 03:51:45;;;;;;;4.38;2.00;;;19.10;91.60;;;;;;4999260;28;20018;-68
2023/07/31 03:54:11;;;;;;;4.38;2.17;;;19.10;91.90;;;;;;4992725;28;20073;-68
2023/07/31 03:56:38;;;;;;;3.20;2.20;;;19.10;92.40;;;;;;4992914;28;20041;-68
2023/07/31 03:59:04;;;;;;;2.22;1.67;;;19.10;92.50;;;;;;4992510;28;20118;-68
2023/07/31 04:01:29;;;;;;;2.58;2.35;;;19.10;92.70;;;;;;4992977;28;20109;-68
2023/07/31 04:03:55;;;;;;;5.40;2.25;;;19.10;93.00;;;;;;4992468;28;20022;-68
2023/07/31 04:06:21;;;;;;;3.00;1.88;;;19.20;93.20;;;;;;4992439;28;20549;-68
2023/07/31 04:08:47;;;;;;;3.90;2.00;;;19.20;93.50;;;;;;4994424;28;20022;-68
2023/07/31 04:11:12;;;;;;;2.42;1.90;;;19.20;93.70;;;;;;4996040;28;20062;-68
2023/07/31 04:13:38;;;;;;;4.93;2.28;;;19.20;94.00;;;;;;4996367;28;20030;-68
2023/07/31 04:16:04;;;;;;;3.70;1.80;;;19.30;94.20;;;;;;4995664;28;20041;-68
2023/07/31 04:18:30;;;;;;;4.63;2.20;;;19.30;94.30;;;;;;4996106;28;20030;-68
2023/07/31 04:20:58;;;;;;;3.20;1.90;;;19.30;94.20;;;;;;4995774;28;20030;-68
2023/07/31 04:23:24;;;;;;;3.15;2.03;;;19.30;94.00;;;;;;4996481;28;20035;-68
2023/07/31 04:25:49;;;;;;;3.85;2.10;;;19.40;93.80;;;;;;4995816;28;20352;-68
2023/07/31 04:28:15;;;;;;;3.13;2.10;;;19.40;93.70;;;;;;4978674;28;20037;-69
2023/07/31 04:30:41;;;;;;;5.28;1.77;;;19.40;93.40;;;;;;4995989;28;20041;-69
2023/07/31 04:33:06;;;;;;;3.53;2.20;;;19.40;93.30;;;;;;4995707;28;20456;-68
2023/07/31 04:35:32;;;;;;;5.35;2.00;;;19.50;93.00;;;;;;4996083;28;20080;-69
2023/07/31 04:37:57;;;;;;;4.65;2.22;;;19.40;92.90;;;;;;4995575;28;20030;-69
2023/07/31 04:40:24;;;;;;;3.90;2.50;;;19.50;92.70;;;;;;4995678;28;20442;-69
2023/07/31 04:42:50;;;;;;;5.88;2.10;;;19.50;92.70;;;;;;4995192;28;20113;-69
2023/07/31 04:45:15;;;;;;;2.03;1.73;;;19.50;92.50;;;;;;4995900;28;20053;-69
2023/07/31 04:47:41;;;;;;;2.50;1.90;;;19.50;92.50;;;;;;4995855;28;20058;-68
2023/07/31 04:50:07;;;;;;;4.32;2.00;;;19.50;92.50;;;;;;4994926;28;20034;-69
2023/07/31 04:52:32;;;;;;;5.38;2.10;;;19.60;92.30;;;;;;4995439;28;20030;-69
2023/07/31 04:54:58;;;;;;;4.32;2.20;;;19.60;92.10;;;;;;4995232;28;20053;-69
2023/07/31 04:57:24;;;;;;;5.25;2.08;;;19.70;91.60;;;;;;4995643;28;20375;-69
2023/07/31 04:59:49;;;;;;;4.53;1.95;;;19.70;91.30;;;;;;4995426;28;20038;-69
2023/07/31 05:02:15;;;;;;;6.43;2.42;;;19.70;91.40;;;;;;4995687;28;20444;-69
2023/07/31 05:04:41;;;;;;;3.90;2.00;;;19.80;91.40;;;;;;4995455;28;20033;-69
2023/07/31 05:07:06;;;;;;;2.95;1.98;;;19.90;91.10;;;;;;4994622;28;20058;-70
2023/07/31 05:09:32;;;;;;;3.55;2.20;;;20.00;90.40;;;;;;4994883;28;20030;-69
2023/07/31 05:11:58;;;;;;;4.35;2.13;;;20.10;89.40;;;;;;4995003;28;20022;-69
2023/07/31 05:14:23;;;;;;;4.85;1.77;;;20.20;88.40;;;;;;4995363;28;20029;-69
2023/07/31 05:16:49;;;;;;;3.30;2.03;;;20.40;87.60;;;;;;4993657;28;20026;-70
2023/07/31 05:19:14;;;;;;;5.55;2.08;;;20.50;87.10;;;;;;4994923;28;20026;-68
2023/07/31 05:21:40;;;;;;;6.90;2.30;;;20.60;85.70;;;;;;4994570;28;20054;-68
2023/07/31 05:24:07;;;;;;;4.40;1.83;;;20.80;84.50;;;;;;4994729;28;20398;-68
2023/07/31 05:26:32;;;;;;;3.85;1.80;;;21.00;83.20;;;;;;4995290;28;20120;-67
2023/07/31 05:28:58;;;;;;;5.07;2.08;;;21.10;82.50;;;;;;4997073;28;20018;-67
2023/07/31 05:31:24;;;;;;;4.72;2.10;;;21.40;81.00;;;;;;5010777;28;20041;-67
2023/07/31 05:33:50;;;;;;;4.07;2.00;;;21.60;79.20;;;;;;5013840;28;20022;-72
2023/07/31 05:36:16;;;;;;;7.05;2.20;;;21.90;78.60;;;;;;5014207;28;20053;-69
2023/07/31 05:38:44;;;;;;;10.77;2.25;;;22.20;77.80;;;;;;5013715;28;20026;-68
2023/07/31 05:41:11;;;;;;;3.22;1.73;;;23.00;74.40;;;;;;5013259;28;20034;-69
2023/07/31 05:43:37;;;;;;;3.75;1.90;;;23.70;71.30;;;;;;5013416;28;20026;-69
2023/07/31 05:46:03;;;;;;;3.35;1.60;;;24.30;69.30;;;;;;5013338;28;20026;-68
2023/07/31 05:48:28;;;;;;;3.83;1.80;;;25.20;66.50;;;;;;5013412;28;20037;-69
2023/07/31 05:50:54;;;;;;;3.00;1.55;;;26.00;64.10;;;;;;5008318;28;20109;-69
2023/07/31 05:53:19;;;;;;;15.57;1.92;;;26.50;60.80;;;;;;5000886;28;20022;-69
2023/07/31 05:55:45;;;;;;;6.18;2.00;;;27.00;59.30;;;;;;5013145;28;20026;-69
2023/07/31 05:58:11;;;;;;;4.32;1.80;;;27.50;58.00;;;;;;5012862;28;20510;-69
2023/07/31 06:00:36;;;;;;;4.57;1.88;;;27.90;55.60;;;;;;5013437;28;20030;-69
2023/07/31 06:03:02;;;;;;;3.45;1.65;;;28.20;54.80;;;;;;5012766;28;20490;-69
2023/07/31 06:05:29;;;;;;;4.60;1.75;;;28.40;53.80;;;;;;5011913;28;20037;-69
2023/07/31 06:07:55;;;;;;;2.85;1.52;;;28.40;53.00;;;;;;5013327;28;20463;-69
2023/07/31 06:10:21;;;;;;;2.83;1.50;;;28.80;53.70;;;;;;5013723;28;20045;-71
2023/07/31 06:12:46;;;;;;;4.65;2.10;;;28.60;52.60;;;;;;5014155;28;20026;-74
2023/07/31 06:15:12;;;;;;;4.18;1.40;;;28.50;53.00;;;;;;5013603;28;20236;-73
2023/07/31 06:17:38;;;;;;;6.85;1.98;;;28.60;53.00;;;;;;5013909;28;20513;-76
2023/07/31 06:20:06;;;;;;;4.78;1.63;;;28.20;52.10;;;;;;5012947;28;20033;-81
2023/07/31 06:22:32;;;;;;;2.83;1.60;;;28.10;52.90;;;;;;5013829;28;20040;-78
2023/07/31 06:24:58;;;;;;;5.07;1.92;;;28.10;52.60;;;;;;5013186;28;20104;-74
2023/07/31 06:27:24;;;;;;;5.95;1.83;;;27.80;52.80;;;;;;5013254;28;20487;-78
2023/07/31 06:29:50;;;;;;;2.40;1.55;;;27.40;53.70;;;;;;5003577;28;20093;-72
2023/07/31 06:32:15;;;;;;;2.17;1.40;;;27.30;53.90;;;;;;4992568;28;20022;-80
2023/07/31 06:34:41;;;;;;;1.90;1.40;;;27.20;54.40;;;;;;4993485;28;20030;-74
2023/07/31 06:37:06;;;;;;;2.45;1.70;;;27.00;54.10;;;;;;4993422;28;20253;-78
2023/07/31 06:39:32;;;;;;;3.97;1.40;;;26.90;53.90;;;;;;4992972;28;20022;-70
2023/07/31 06:41:58;;;;;;;6.30;2.00;;;27.00;52.70;;;;;;4992826;28;20030;-75
2023/07/31 06:44:23;;;;;;;7.47;1.40;;;26.90;53.10;;;;;;4994402;28;20111;-73
2023/07/31 06:46:49;;;;;;;3.53;1.80;;;26.80;53.30;;;;;;4976177;28;20122;-76
2023/07/31 06:49:17;;;;;;;6.82;1.73;;;27.10;53.30;;;;;;4993401;28;20455;-69
2023/07/31 06:51:44;;;;;;;2.67;1.35;;;27.20;50.60;;;;;;4993827;28;20039;-70
2023/07/31 06:54:09;;;;;;;4.45;1.70;;;27.80;49.70;;;;;;4993011;28;20134;-72
2023/07/31 06:56:35;;;;;;;4.05;1.50;;;28.20;50.40;;;;;;4993926;28;20052;-74
2023/07/31 06:59:01;;;;;;;5.90;1.67;;;28.80;48.70;;;;;;4975397;28;20038;-74
2023/07/31 07:01:28;;;;;;;5.20;1.55;;;29.20;47.80;;;;;;4993589;28;20042;-76
2023/07/31 07:03:54;;;;;;;3.25;1.60;;;29.30;46.70;;;;;;4993382;28;20026;-73
2023/07/31 07:06:19;;;;;;;2.13;1.20;;;29.70;45.40;;;;;;4992961;28;20391;-71
2023/07/31 07:08:45;;;;;;;2.75;1.38;;;30.20;45.70;;;;;;4993286;28;20031;-68
2023/07/31 07:11:11;;;;;;;3.63;1.33;;;30.60;43.70;;;;;;4991954;28;20469;-69
2023/07/31 07:13:36;;;;;;;3.35;1.35;;;30.70;42.10;;;;;;4992508;28;20026;-69
2023/07/31 07:16:02;;;;;;;3.22;1.40;;;30.80;42.80;;;;;;4992669;28;20034;-70
2023/07/31 07:18:28;;;;;;;2.28;1.23;;;31.30;40.70;;;;;;4993306;28;20387;-69
2023/07/31 07:20:54;;;;;;;4.88;1.48;;;31.20;40.00;;;;;;4993178;28;20375;-70
2023/07/31 07:23:20;;;;;;;6.15;1.60;;;30.80;39.20;;;;;;4992870;28;20042;-70
2023/07/31 07:25:47;;;;;;;2.72;1.30;;;30.50;39.60;;;;;;4992996;28;20027;-69
2023/07/31 07:28:13;;;;;;;2.63;1.38;;;31.10;39.60;;;;;;4995197;28;20109;-70
2023/07/31 07:30:39;;;;;;;5.53;1.50;;;31.40;39.60;;;;;;4992964;28;20044;-69
2023/07/31 07:33:05;;;;;;;3.58;1.30;;;31.40;38.90;;;;;;4992986;28;20031;-69
2023/07/31 07:35:33;;;;;;;2.17;1.20;;;31.30;38.10;;;;;;4993094;28;20050;-69
2023/07/31 07:37:58;;;;;;;6.22;1.45;;;31.40;37.90;;;;;;4999671;28;20034;-69
2023/07/31 07:40:24;;;;;;;3.90;1.50;;;31.40;37.30;;;;;;5012144;28;20347;-69
2023/07/31 07:42:50;;;;;;;3.25;1.40;;;30.70;37.40;;;;;;5000301;28;20390;-69
2023/07/31 07:45:15;;;;;;;3.15;1.40;;;30.70;38.00;;;;;;4996236;28;20041;-69
2023/07/31 07:47:42;;;;;;;5.07;1.40;;;31.00;38.40;;;;;;4996931;28;20053;-69
2023/07/31 07:50:08;;;;;;;4.07;1.45;;;31.20;38.00;;;;;;4996365;28;20096;-69
2023/07/31 07:52:33;;;;;;;3.63;1.50;;;31.10;38.60;;;;;;4996802;28;20443;-69
2023/07/31 07:55:00;;;;;;;3.15;1.42;;;31.10;37.50;;;;;;4996676;28;20083;-69
2023/07/31 07:57:25;;;;;;;3.70;1.45;;;31.00;37.70;;;;;;4996375;28;20019;-70
2023/07/31 07:59:51;;;;;;;3.78;1.55;;;31.20;37.10;;;;;;4996669;28;20485;-69
2023/07/31 08:02:17;;;;;;;1.98;1.20;;;31.00;38.00;;;;;;4996446;28;20026;-69
2023/07/31 08:04:42;;;;;;;1.90;1.27;;;30.60;37.50;;;;;;4996439;28;20030;-69
2023/07/31 08:07:10;;;;;;;3.63;1.80;;;30.20;38.70;;;;;;4995777;28;20124;-70
2023/07/31 08:09:36;;;;;;;3.50;1.52;;;29.80;39.90;;;;;;4996400;28;20435;-69
2023/07/31 08:12:03;;;;;;;3.58;1.42;;;29.20;38.70;;;;;;4996523;28;20141;-69
2023/07/31 08:14:29;;;;;;;3.90;1.42;;;28.80;39.50;;;;;;4996294;28;20041;-69
2023/07/31 08:16:55;;;;;;;3.95;1.27;;;28.70;40.30;;;;;;4996404;28;20514;-69
2023/07/31 08:19:21;;;;;;;3.65;1.40;;;28.80;40.80;;;;;;4995697;28;20042;-69
2023/07/31 08:21:47;;;;;;;3.55;1.38;;;28.90;39.70;;;;;;4996347;28;20118;-69
2023/07/31 08:24:12;;;;;;;3.35;1.33;;;28.50;39.40;;;;;;4995655;28;20471;-69
2023/07/31 08:26:38;;;;;;;3.33;1.40;;;28.40;39.60;;;;;;4996183;28;20033;-69
2023/07/31 08:29:04;;;;;;;3.67;1.55;;;28.60;40.80;;;;;;4995800;28;20029;-76
2023/07/31 08:31:29;;;;;;;4.22;1.40;;;28.50;40.60;;;;;;4996071;28;20460;-69
2023/07/31 08:33:56;;;;;;;3.40;1.35;;;28.20;40.40;;;;;;4996030;28;20037;-69
2023/07/31 08:36:21;;;;;;;3.80;2.00;;;28.10;41.50;;;;;;4995997;28;20034;-69
2023/07/31 08:38:47;;;;;;;3.38;1.60;;;27.80;41.60;;;;;;4995952;28;20022;-69
2023/07/31 08:41:13;;;;;;;5.75;1.45;;;27.90;42.40;;;;;;4995603;28;20030;-69
2023/07/31 08:43:39;;;;;;;3.67;1.30;;;28.40;43.70;;;;;;4996008;28;20176;-69
2023/07/31 08:46:05;;;;;;;3.45;1.50;;;28.70;42.20;;;;;;4995455;28;20022;-80
2023/07/31 08:48:32;;;;;;;3.17;1.60;;;28.80;41.80;;;;;;4995885;28;20482;-69
2023/07/31 08:50:58;;;;;;;5.22;1.70;;;28.70;42.60;;;;;;4995712;28;20030;-69
2023/07/31 08:53:24;;;;;;;4.93;1.65;;;28.50;39.30;;;;;;4995084;28;20024;-69
2023/07/31 08:55:50;;;;;;;7.35;2.10;;;28.20;39.50;;;;;;4994669;28;20105;-69
2023/07/31 08:58:17;;;;;;;8.73;1.98;;;28.10;41.30;;;;;;4995245;28;20390;-69
2023/07/31 09:00:45;;;;;;;3.50;1.60;;;27.40;40.30;;;;;;4978042;28;20467;-68
2023/07/31 09:03:16;;;;;;;4.20;1.42;;;27.40;41.70;;;;;;4995422;28;20045;-69
2023/07/31 09:05:42;;;;;;;;;;;27.40;42.60;;;;;;4995666;28;20038;-69
2023/07/31 09:08:10;;;;;;;7.20;1.63;;;27.30;42.80;;;;;;4995178;28;19994;-70
2023/07/31 09:10:40;;;;;;;3.60;1.50;;;27.10;42.20;;;;;;4995363;28;20030;-68
2023/07/31 09:13:06;;;;;;;3.80;1.63;;;27.10;42.90;;;;;;4995292;28;20022;-69
2023/07/31 09:15:32;;;;;;;5.60;2.15;;;27.00;43.10;;;;;;4995228;28;20343;-69
2023/07/31 09:18:01;;;;;;;4.45;1.27;;;27.10;43.20;;;;;;4995087;28;20042;-69
2023/07/31 09:20:27;;;;;;;3.92;1.55;;;27.00;43.70;;;;;;4994659;28;20050;-69
2023/07/31 09:22:53;;;;;;;2.97;1.35;;;26.80;43.30;;;;;;4995086;28;20395;-68
2023/07/31 09:25:23;;;;;;;3.80;1.15;;;26.50;43.90;;;;;;4994364;28;20080;-68
2023/07/31 09:27:49;;;;;;;;;;;26.30;44.50;;;;;;4995224;28;20030;-69
2023/07/31 09:30:16;;;;;;;6.13;1.95;;;26.30;45.00;;;;;;4994606;28;19910;-68
2023/07/31 09:32:43;;;;;;;6.68;1.60;;;26.30;46.10;;;;;;4997641;28;20038;-69
2023/07/31 09:35:27;;;;;;;3.72;1.52;;;26.40;45.80;;;;;;4993883;28;20031;-70
2023/07/31 09:37:56;;;;;;;4.70;1.50;;;26.50;45.70;;;;;;4994642;28;20033;-68
2023/07/31 09:40:33;;;;;;;2.28;1.30;;;26.50;45.50;;;;;;5012068;28;20125;-69
2023/07/31 09:43:12;;;;;;;3.75;1.52;;;26.50;45.30;;;;;;5014190;28;20405;-70
2023/07/31 09:45:42;;;;;;;3.13;1.40;;;26.50;45.90;;;;;;5014396;28;20026;-69
2023/07/31 09:48:13;;;;;;;4.63;1.70;;;26.50;46.10;;;;;;5014247;28;20477;-68
2023/07/31 09:50:41;;;;;;;3.45;1.50;;;26.40;45.80;;;;;;5013683;28;20052;-68
2023/07/31 09:53:08;;;;;;;5.10;1.55;;;26.40;45.30;;;;;;5014324;28;20108;-70
2023/07/31 09:55:34;;;;;;;3.30;1.45;;;26.50;45.70;;;;;;5013223;28;20030;-68
2023/07/31 09:58:04;;;;;;;4.25;1.48;;;26.40;45.10;;;;;;5013911;28;20030;-68
2023/07/31 10:00:31;;;;;;;5.40;1.45;;;26.40;45.00;;;;;;5013395;28;20045;-69
2023/07/31 10:03:00;;;;;;;5.07;1.70;;;26.40;44.40;;;;;;5014216;28;20455;-68
2023/07/31 10:05:33;;;;;;;2.25;1.20;;;26.40;44.80;;;;;;5013302;28;20032;-69
2023/07/31 10:07:59;;;;;;;2.83;1.65;;;26.30;44.70;;;;;;5013722;28;20479;-67
2023/07/31 10:10:25;;;;;;;2.83;1.23;;;26.40;44.40;;;;;;5013737;28;20029;-68
2023/07/31 10:12:53;;;;;;;3.10;1.30;;;26.30;44.50;;;;;;5014380;28;20045;-69
2023/07/31 10:15:19;;;;;;;3.92;1.67;;;26.40;44.40;;;;;;5013403;28;20474;-69
2023/07/31 10:17:49;;;;;;;5.50;1.48;;;26.40;44.60;;;;;;5014192;28;20154;-69
2023/07/31 10:20:16;;;;;;;4.15;1.52;;;26.40;43.80;;;;;;5013505;28;20144;-67
2023/07/31 10:22:46;;;;;;;3.25;1.58;;;26.50;44.50;;;;;;5013602;28;20495;-69
2023/07/31 10:25:11;;;;;;;5.57;1.40;;;26.50;44.80;;;;;;5013558;28;20124;-79
2023/07/31 10:27:39;;;;;;;2.97;1.45;;;26.50;44.40;;;;;;5013671;28;20474;-69
2023/07/31 10:30:07;;;;;;;3.95;1.58;;;26.60;44.50;;;;;;5013369;28;20030;-69
2023/07/31 10:32:34;;;;;;;5.60;1.23;;;26.60;44.40;;;;;;5012776;28;20044;-69
2023/07/31 10:35:02;;;;;;;3.58;1.63;;;26.60;44.80;;;;;;5013323;28;20030;-69
2023/07/31 10:37:30;;;;;;;3.33;1.50;;;26.70;45.30;;;;;;5013275;28;20466;-69
2023/07/31 10:40:08;;;;;;;2.92;1.40;;;26.80;44.10;;;;;;5013298;28;20061;-69
2023/07/31 10:42:36;;;;;;;1.73;1.30;;;26.90;43.70;;;;;;5012819;28;20038;-69
2023/07/31 10:45:07;;;;;;;4.82;1.63;;;26.90;44.50;;;;;;5013181;28;20033;-69
2023/07/31 10:47:44;;;;;;;5.63;1.60;;;26.90;44.10;;;;;;5013157;28;20041;-68
2023/07/31 10:50:21;;;;;;;3.53;1.30;;;27.00;44.40;;;;;;5013108;28;20042;-68
2023/07/31 10:52:52;;;;;;;5.00;1.63;;;27.00;44.10;;;;;;5012891;28;20034;-68
2023/07/31 10:55:24;;;;;;;6.07;1.55;;;27.00;43.80;;;;;;5012600;28;20029;-69
2023/07/31 10:57:49;;;;;;;2.22;1.23;;;26.90;43.30;;;;;;5012915;28;20033;-68
2023/07/31 11:00:28;;;;;;;4.88;1.25;;;27.00;43.90;;;;;;5012389;28;20387;-69
2023/07/31 11:03:03;;;;;;;2.85;1.30;;;27.10;44.30;;;;;;5012994;28;20062;-69
2023/07/31 11:05:45;;;;;;;3.63;1.75;;;27.10;43.10;;;;;;5012641;28;20029;-69
2023/07/31 11:08:16;;;;;;;3.63;1.45;;;27.10;43.00;;;;;;4994867;28;20065;-68
2023/07/31 11:10:46;;;;;;;6.57;1.70;;;27.20;42.90;;;;;;5012518;28;20613;-68
2023/07/31 11:13:13;;;;;;;3.50;1.45;;;27.20;43.10;;;;;;5012810;28;20066;-68
2023/07/31 11:15:38;;;;;;;4.18;1.50;;;27.20;43.70;;;;;;5012216;28;20097;-67
2023/07/31 11:18:05;;;;;;;3.58;1.55;;;27.30;43.00;;;;;;5015382;28;20489;-68
2023/07/31 11:20:32;;;;;;;3.17;1.30;;;27.30;41.10;;;;;;5018941;28;20038;-68
2023/07/31 11:23:02;;;;;;;5.55;1.10;;;27.20;41.60;;;;;;5019344;28;20101;-68
2023/07/31 11:25:31;;;;;;;3.37;1.57;;;27.20;41.10;;;;;;5018062;28;20147;-68
2023/07/31 11:28:08;;;;;;;3.60;1.60;;;27.10;41.00;;;;;;4999355;28;20026;-68
2023/07/31 11:30:35;;;;;;;4.38;1.42;;;27.10;41.80;;;;;;4999041;28;20455;-68
2023/07/31 11:33:05;;;;;;;3.65;1.63;;;27.20;42.40;;;;;;4999072;28;20033;-69
2023/07/31 11:35:36;;;;;;;3.40;1.50;;;27.20;42.70;;;;;;5001570;28;20032;-68
2023/07/31 11:38:02;;;;;;;4.88;1.45;;;27.20;42.80;;;;;;4999576;28;20045;-68
2023/07/31 11:40:31;;;;;;;3.58;1.35;;;27.20;42.20;;;;;;4981591;28;20379;-68
2023/07/31 11:42:58;;;;;;;4.95;1.70;;;27.20;42.70;;;;;;4999486;28;20026;-69
2023/07/31 11:45:27;;;;;;;3.55;1.40;;;27.30;42.10;;;;;;4999064;28;20105;-69
2023/07/31 11:47:56;;;;;;;2.75;1.40;;;27.30;42.50;;;;;;4999623;28;20425;-68
2023/07/31 11:50:25;;;;;;;3.55;1.10;;;27.40;42.40;;;;;;5016277;28;20052;-69
2023/07/31 11:52:55;;;;;;;4.57;1.40;;;27.40;41.50;;;;;;5019254;28;20037;-68
2023/07/31 11:55:22;;;;;;;3.60;1.85;;;27.40;41.50;;;;;;5018648;28;20072;-67
2023/07/31 11:57:48;;;;;;;2.83;1.40;;;27.50;41.80;;;;;;5019319;28;20041;-69
2023/07/31 12:00:15;;;;;;;3.70;1.77;;;27.40;41.20;;;;;;5019376;28;20034;-69
2023/07/31 12:02:42;;;;;;;1.58;1.23;;;27.40;39.50;;;;;;5018718;28;20471;-69
2023/07/31 12:05:12;;;;;;;4.70;1.27;;;27.40;38.50;;;;;;5018679;28;20150;-69
2023/07/31 12:07:52;;;;;;;2.60;1.48;;;27.30;39.10;;;;;;5018773;28;20050;-70
2023/07/31 12:10:31;;;;;;;3.38;1.67;;;27.20;39.30;;;;;;5018804;28;20025;-69
2023/07/31 12:13:01;;;;;;;2.38;1.42;;;27.10;39.00;;;;;;5018850;28;20025;-69
2023/07/31 12:15:34;;;;;;;5.70;1.30;;;27.00;40.10;;;;;;5018411;28;20022;-69
2023/07/31 12:18:03;;;;;;;2.85;1.33;;;27.00;39.70;;;;;;5018729;28;20658;-69
2023/07/31 12:20:30;;;;;;;2.75;1.30;;;27.00;40.50;;;;;;5018723;28;20064;-69
2023/07/31 12:22:58;;;;;;;2.17;1.33;;;27.10;40.40;;;;;;5018982;28;20048;-69
2023/07/31 12:25:28;;;;;;;3.08;1.58;;;27.10;39.90;;;;;;5018144;28;20433;-69
2023/07/31 12:27:53;;;;;;;2.05;1.23;;;27.10;40.10;;;;;;5019370;28;20030;-69
2023/07/31 12:30:31;;;;;;;3.58;1.30;;;27.10;40.60;;;;;;5016363;28;20383;-69
2023/07/31 12:32:57;;;;;;;2.17;1.10;;;27.00;39.90;;;;;;4998338;28;20433;-69
2023/07/31 12:35:23;;;;;;;3.50;1.60;;;27.00;40.80;;;;;;5015052;28;20021;-69
2023/07/31 12:37:48;;;;;;;3.22;1.42;;;27.00;41.80;;;;;;5015608;28;20029;-70
2023/07/31 12:40:14;;;;;;;3.83;1.50;;;27.00;42.40;;;;;;5015257;28;20034;-68
2023/07/31 12:42:41;;;;;;;5.45;1.70;;;27.00;42.40;;;;;;5015150;28;20447;-69
2023/07/31 12:45:07;;;;;;;3.95;1.42;;;27.00;42.70;;;;;;5015236;28;20054;-68
2023/07/31 12:47:33;;;;;;;5.43;1.77;;;27.00;42.50;;;;;;5015034;28;20445;-68